createdAt,value
2019-01-10T00:00:28.044Z,1012.57
2019-01-10T00:01:28.036Z,1012.59
2019-01-10T00:02:28.023Z,1012.53
2019-01-10T00:03:28.010Z,1012.62
2019-01-10T00:04:28.011Z,1012.59
2019-01-10T00:05:27.987Z,1012.65
2019-01-10T00:06:27.982Z,1012.64
2019-01-10T00:07:27.965Z,1012.66
2019-01-10T00:08:27.956Z,1012.68
2019-01-10T00:09:27.956Z,1012.63
2019-01-10T00:10:27.935Z,1012.65
2019-01-10T00:11:27.925Z,1012.67
2019-01-10T00:12:27.911Z,1012.65
2019-01-10T00:13:27.915Z,1012.63
2019-01-10T00:14:27.890Z,1012.69
2019-01-10T00:15:27.890Z,1012.67
2019-01-10T00:16:27.867Z,1012.71
2019-01-10T00:17:27.857Z,1012.69
2019-01-10T00:18:27.851Z,1012.70
2019-01-10T00:19:27.843Z,1012.71
2019-01-10T00:20:27.838Z,1012.79
2019-01-10T00:21:27.818Z,1012.74
2019-01-10T00:22:27.805Z,1012.78
2019-01-10T00:23:27.795Z,1012.90
2019-01-10T00:24:27.784Z,1012.81
2019-01-10T00:25:27.781Z,1012.81
2019-01-10T00:26:27.758Z,1012.79
2019-01-10T00:27:27.756Z,1012.76
2019-01-10T00:28:27.738Z,1012.84
2019-01-10T00:29:27.730Z,1012.87
2019-01-10T00:30:27.728Z,1012.87
2019-01-10T00:31:27.705Z,1012.87
2019-01-10T00:32:27.695Z,1012.86
2019-01-10T00:33:27.686Z,1012.89
2019-01-10T00:34:27.673Z,1012.96
2019-01-10T00:35:27.676Z,1012.92
2019-01-10T00:36:27.653Z,1012.93
2019-01-10T00:37:27.641Z,1012.95
2019-01-10T00:38:27.630Z,1012.96
2019-01-10T00:39:27.619Z,1012.91
2019-01-10T00:40:27.624Z,1012.96
2019-01-10T00:41:27.603Z,1012.98
2019-01-10T00:42:27.586Z,1012.98
2019-01-10T00:43:27.576Z,1012.98
2019-01-10T00:44:27.565Z,1013.02
2019-01-10T00:45:27.564Z,1013.01
2019-01-10T00:46:27.546Z,1013.07
2019-01-10T00:47:27.536Z,1013.09
2019-01-10T00:48:27.521Z,1012.97
2019-01-10T00:49:27.511Z,1013.02
2019-01-10T00:50:27.510Z,1013.05
2019-01-10T00:51:27.492Z,1013.09
2019-01-10T00:52:27.480Z,1013.11
2019-01-10T00:53:27.469Z,1013.12
2019-01-10T00:54:27.457Z,1013.12
2019-01-10T00:55:27.459Z,1013.12
2019-01-10T00:56:27.434Z,1013.13
2019-01-10T00:57:27.425Z,1013.11
2019-01-10T00:58:27.417Z,1013.16
2019-01-10T00:59:27.403Z,1013.06
2019-01-10T01:00:27.401Z,1013.16
2019-01-10T01:01:27.394Z,1013.17
2019-01-10T01:02:27.369Z,1013.15
2019-01-10T01:03:27.359Z,1013.19
2019-01-10T01:04:27.349Z,1013.20
2019-01-10T01:05:27.351Z,1013.24
2019-01-10T01:06:27.328Z,1013.26
2019-01-10T01:07:27.316Z,1013.30
2019-01-10T01:08:27.307Z,1013.25
2019-01-10T01:09:27.295Z,1013.31
2019-01-10T01:10:27.293Z,1013.32
2019-01-10T01:11:27.271Z,1013.28
2019-01-10T01:12:27.265Z,1013.24
2019-01-10T01:13:27.250Z,1013.36
2019-01-10T01:14:27.239Z,1013.32
2019-01-10T01:15:27.241Z,1013.34
2019-01-10T01:16:27.217Z,1013.46
2019-01-10T01:17:27.209Z,1013.44
2019-01-10T01:18:27.196Z,1013.48
2019-01-10T01:19:27.187Z,1013.47
2019-01-10T01:20:27.187Z,1013.47
2019-01-10T01:21:27.165Z,1013.48
2019-01-10T01:22:27.153Z,1013.46
2019-01-10T01:23:27.141Z,1013.46
2019-01-10T01:24:27.132Z,1013.53
2019-01-10T01:25:27.130Z,1013.53
2019-01-10T01:26:27.111Z,1013.57
2019-01-10T01:27:27.101Z,1013.52
2019-01-10T01:28:27.087Z,1013.54
2019-01-10T01:29:27.078Z,1013.60
2019-01-10T01:30:27.086Z,1013.64
2019-01-10T01:31:27.054Z,1013.63
2019-01-10T01:32:27.044Z,1013.61
2019-01-10T01:33:27.034Z,1013.60
2019-01-10T01:34:27.025Z,1013.62
2019-01-10T01:35:27.014Z,1013.67
2019-01-10T01:36:27.014Z,1013.72
2019-01-10T01:37:26.989Z,1013.60
2019-01-10T01:38:26.985Z,1013.71
2019-01-10T01:39:26.971Z,1013.67
2019-01-10T01:40:26.963Z,1013.68
2019-01-10T01:41:26.957Z,1013.74
2019-01-10T01:42:26.935Z,1013.75
2019-01-10T01:43:26.927Z,1013.74
2019-01-10T01:44:26.914Z,1013.81
2019-01-10T01:45:26.904Z,1013.84
2019-01-10T01:46:26.902Z,1013.87
2019-01-10T01:47:26.882Z,1013.86
2019-01-10T01:48:26.871Z,1013.90
2019-01-10T01:49:26.862Z,1013.93
2019-01-10T01:52:57.159Z,1014.01
2019-01-10T01:53:44.898Z,1014.00
2019-01-10T01:57:14.149Z,1014.01
2019-01-10T01:58:03.390Z,1014.04
2019-01-10T01:59:03.381Z,1014.07
2019-01-10T02:00:03.370Z,1014.10
2019-01-10T02:01:03.369Z,1014.11
2019-01-10T02:02:03.349Z,1014.20
2019-01-10T02:03:03.338Z,1014.15
2019-01-10T02:04:03.327Z,1014.09
2019-01-10T02:05:03.318Z,1014.18
2019-01-10T02:06:03.338Z,1014.19
2019-01-10T02:07:03.297Z,1014.22
2019-01-10T02:08:03.290Z,1014.17
2019-01-10T02:09:03.275Z,1014.23
2019-01-10T02:10:03.266Z,1014.20
2019-01-10T02:11:03.257Z,1014.25
2019-01-10T02:12:03.259Z,1014.23
2019-01-10T02:13:03.232Z,1014.24
2019-01-10T02:14:03.223Z,1014.22
2019-01-10T02:15:03.212Z,1014.25
2019-01-10T02:16:03.202Z,1014.27
2019-01-10T02:17:03.200Z,1014.35
2019-01-10T02:18:03.180Z,1014.38
2019-01-10T02:19:03.167Z,1014.37
2019-01-10T02:20:03.158Z,1014.42
2019-01-10T02:21:03.149Z,1014.34
2019-01-10T02:22:03.149Z,1014.32
2019-01-10T02:23:03.125Z,1014.42
2019-01-10T02:24:03.119Z,1014.28
2019-01-10T02:25:03.111Z,1014.39
2019-01-10T02:26:03.093Z,1014.44
2019-01-10T02:27:03.098Z,1014.40
2019-01-10T02:28:03.079Z,1014.42
2019-01-10T02:29:03.060Z,1014.43
2019-01-10T02:30:03.061Z,1014.42
2019-01-10T02:31:03.045Z,1014.46
2019-01-10T02:32:03.044Z,1014.45
2019-01-10T02:33:03.019Z,1014.48
2019-01-10T02:34:03.008Z,1014.48
2019-01-10T02:35:02.999Z,1014.46
2019-01-10T02:36:02.989Z,1014.52
2019-01-10T02:37:02.989Z,1014.51
2019-01-10T02:38:02.968Z,1014.52
2019-01-10T02:39:02.957Z,1014.56
2019-01-10T02:40:02.945Z,1014.56
2019-01-10T02:41:02.934Z,1014.58
2019-01-10T02:42:02.934Z,1014.55
2019-01-10T02:43:02.921Z,1014.57
2019-01-10T02:44:02.905Z,1014.56
2019-01-10T02:45:02.894Z,1014.60
2019-01-10T02:46:02.889Z,1014.59
2019-01-10T02:47:02.885Z,1014.53
2019-01-10T02:48:02.861Z,1014.61
2019-01-10T02:49:02.850Z,1014.65
2019-01-10T02:50:02.845Z,1014.59
2019-01-10T02:51:02.828Z,1014.72
2019-01-10T02:52:02.830Z,1014.71
2019-01-10T02:53:02.810Z,1014.60
2019-01-10T02:54:02.811Z,1014.63
2019-01-10T02:55:02.785Z,1014.64
2019-01-10T02:56:02.777Z,1014.69
2019-01-10T02:57:02.776Z,1014.66
2019-01-10T02:58:02.767Z,1014.66
2019-01-10T02:59:02.744Z,1014.62
2019-01-10T03:00:02.735Z,1014.68
2019-01-10T03:01:02.726Z,1014.64
2019-01-10T03:02:02.757Z,1014.67
2019-01-10T03:03:02.703Z,1014.69
2019-01-10T03:04:02.693Z,1014.71
2019-01-10T03:05:02.680Z,1014.71
2019-01-10T03:06:02.672Z,1014.76
2019-01-10T03:07:02.675Z,1014.74
2019-01-10T03:08:02.661Z,1014.68
2019-01-10T03:09:02.638Z,1014.73
2019-01-10T03:10:02.632Z,1014.69
2019-01-10T03:11:02.619Z,1014.69
2019-01-10T03:12:02.619Z,1014.72
2019-01-10T03:13:02.594Z,1014.76
2019-01-10T03:14:02.587Z,1014.77
2019-01-10T03:15:02.573Z,1014.84
2019-01-10T03:16:02.577Z,1014.82
2019-01-10T03:17:02.562Z,1014.78
2019-01-10T03:18:02.541Z,1014.84
2019-01-10T03:19:02.530Z,1014.77
2019-01-10T03:20:02.521Z,1014.78
2019-01-10T03:21:02.509Z,1014.80
2019-01-10T03:22:02.511Z,1014.86
2019-01-10T03:23:02.487Z,1014.78
2019-01-10T03:24:02.478Z,1014.80
2019-01-10T03:25:02.474Z,1014.81
2019-01-10T03:26:02.456Z,1014.80
2019-01-10T03:27:02.478Z,1014.85
2019-01-10T03:28:02.436Z,1014.84
2019-01-10T03:29:02.424Z,1014.84
2019-01-10T03:30:02.414Z,1014.80
2019-01-10T03:31:02.412Z,1014.84
2019-01-10T03:32:02.392Z,1014.82
2019-01-10T03:33:02.407Z,1014.82
2019-01-10T03:34:02.371Z,1014.87
2019-01-10T03:35:02.368Z,1014.85
2019-01-10T03:36:02.350Z,1014.83
2019-01-10T03:37:02.340Z,1014.80
2019-01-10T03:38:11.181Z,1014.88
2019-01-10T03:39:02.319Z,1014.84
2019-01-10T03:40:02.307Z,1014.86
2019-01-10T03:41:02.296Z,1014.89
2019-01-10T03:42:02.284Z,1014.83
2019-01-10T03:43:02.282Z,1014.87
2019-01-10T03:44:11.695Z,1014.84
2019-01-10T03:45:02.253Z,1014.85
2019-01-10T03:46:02.248Z,1014.91
2019-01-10T03:47:02.231Z,1014.87
2019-01-10T03:48:02.234Z,1014.84
2019-01-10T03:49:02.220Z,1014.94
2019-01-10T03:50:02.201Z,1014.90
2019-01-10T03:51:02.192Z,1014.95
2019-01-10T03:52:02.182Z,1015.00
2019-01-10T03:53:02.178Z,1014.91
2019-01-10T03:54:11.223Z,1014.93
2019-01-10T03:55:02.154Z,1014.92
2019-01-10T03:56:02.138Z,1014.95
2019-01-10T03:57:02.127Z,1014.93
2019-01-10T03:58:02.127Z,1014.99
2019-01-10T03:59:02.105Z,1014.99
2019-01-10T04:00:02.096Z,1014.98
2019-01-10T04:01:02.082Z,1014.99
2019-01-10T04:02:02.074Z,1014.91
2019-01-10T04:03:02.075Z,1014.95
2019-01-10T04:04:02.054Z,1014.94
2019-01-10T04:05:02.045Z,1014.95
2019-01-10T04:06:02.031Z,1015.02
2019-01-10T04:07:02.020Z,1014.92
2019-01-10T04:08:02.022Z,1014.98
2019-01-10T04:09:02.000Z,1015.00
2019-01-10T04:10:01.986Z,1014.92
2019-01-10T04:11:01.979Z,1014.93
2019-01-10T04:12:03.397Z,1014.92
2019-01-10T04:13:01.982Z,1015.02
2019-01-10T04:14:01.945Z,1014.96
2019-01-10T04:15:01.934Z,1014.99
2019-01-10T04:16:01.925Z,1015.01
2019-01-10T04:17:01.915Z,1015.02
2019-01-10T04:18:01.917Z,1015.05
2019-01-10T04:19:01.894Z,1015.00
2019-01-10T04:20:01.884Z,1015.04
2019-01-10T04:21:01.871Z,1015.05
2019-01-10T04:22:01.865Z,1015.11
2019-01-10T04:23:01.865Z,1015.03
2019-01-10T04:24:01.841Z,1015.02
2019-01-10T04:25:01.831Z,1015.07
2019-01-10T04:26:01.816Z,1015.06
2019-01-10T04:27:01.807Z,1015.08
2019-01-10T04:28:01.806Z,1015.15
2019-01-10T04:29:01.785Z,1015.17
2019-01-10T04:30:01.776Z,1015.17
2019-01-10T04:31:01.767Z,1015.16
2019-01-10T04:32:01.754Z,1015.10
2019-01-10T04:33:01.753Z,1015.12
2019-01-10T04:34:01.731Z,1015.14
2019-01-10T04:35:01.722Z,1015.20
2019-01-10T04:36:01.716Z,1015.13
2019-01-10T04:37:01.705Z,1015.21
2019-01-10T04:38:01.700Z,1015.20
2019-01-10T04:39:01.678Z,1015.21
2019-01-10T04:40:01.672Z,1015.18
2019-01-10T04:41:01.671Z,1015.20
2019-01-10T04:42:01.647Z,1015.18
2019-01-10T04:43:01.648Z,1015.22
2019-01-10T04:44:06.970Z,1015.27
2019-01-10T04:45:02.614Z,1015.21
2019-01-10T04:46:01.602Z,1015.20
2019-01-10T04:47:01.663Z,1015.27
2019-01-10T04:48:01.793Z,1015.27
2019-01-10T04:49:01.576Z,1015.25
2019-01-10T04:50:01.565Z,1015.26
2019-01-10T04:51:01.550Z,1015.32
2019-01-10T04:52:01.559Z,1015.40
2019-01-10T04:53:01.533Z,1015.33
2019-01-10T04:54:01.531Z,1015.35
2019-01-10T04:55:01.513Z,1015.43
2019-01-10T04:56:01.499Z,1015.46
2019-01-10T04:57:01.488Z,1015.40
2019-01-10T04:58:01.475Z,1015.38
2019-01-10T04:59:01.477Z,1015.46
2019-01-10T05:00:01.478Z,1015.44
2019-01-10T05:01:01.448Z,1015.41
2019-01-10T05:02:01.436Z,1015.43
2019-01-10T05:03:01.422Z,1015.47
2019-01-10T05:04:01.427Z,1015.51
2019-01-10T05:05:01.877Z,1015.47
2019-01-10T05:06:01.389Z,1015.53
2019-01-10T05:07:01.381Z,1015.52
2019-01-10T05:08:01.366Z,1015.46
2019-01-10T05:09:01.370Z,1015.43
2019-01-10T05:10:01.348Z,1015.49
2019-01-10T05:11:01.340Z,1015.50
2019-01-10T05:12:01.325Z,1015.49
2019-01-10T05:13:01.317Z,1015.49
2019-01-10T05:14:01.314Z,1015.52
2019-01-10T05:15:01.296Z,1015.50
2019-01-10T05:16:01.286Z,1015.56
2019-01-10T05:17:01.280Z,1015.56
2019-01-10T05:18:01.270Z,1015.55
2019-01-10T05:19:01.273Z,1015.58
2019-01-10T05:20:01.243Z,1015.59
2019-01-10T05:21:01.230Z,1015.68
2019-01-10T05:22:01.221Z,1015.68
2019-01-10T05:23:01.210Z,1015.58
2019-01-10T05:24:01.210Z,1015.63
2019-01-10T05:25:01.187Z,1015.62
2019-01-10T05:26:01.178Z,1015.60
2019-01-10T05:27:01.173Z,1015.63
2019-01-10T05:28:01.161Z,1015.67
2019-01-10T05:29:01.159Z,1015.67
2019-01-10T05:30:01.138Z,1015.68
2019-01-10T05:31:01.122Z,1015.78
2019-01-10T05:32:02.558Z,1015.74
2019-01-10T05:33:01.109Z,1015.74
2019-01-10T05:34:01.105Z,1015.77
2019-01-10T05:35:01.083Z,1015.85
2019-01-10T05:36:01.076Z,1015.83
2019-01-10T05:37:01.060Z,1015.87
2019-01-10T05:38:01.056Z,1015.86
2019-01-10T05:39:01.052Z,1015.85
2019-01-10T05:40:01.030Z,1015.90
2019-01-10T05:41:01.021Z,1015.85
2019-01-10T05:42:01.015Z,1015.82
2019-01-10T05:43:00.996Z,1015.89
2019-01-10T05:44:01.003Z,1015.89
2019-01-10T05:45:00.974Z,1015.93
2019-01-10T05:46:00.971Z,1015.95
2019-01-10T05:47:00.953Z,1015.89
2019-01-10T05:48:00.954Z,1015.94
2019-01-10T05:49:00.945Z,1015.97
2019-01-10T05:50:00.922Z,1015.99
2019-01-10T05:51:00.916Z,1015.95
2019-01-10T05:52:00.904Z,1015.96
2019-01-10T05:53:00.892Z,1016.03
2019-01-10T05:54:00.896Z,1016.05
2019-01-10T05:55:00.889Z,1016.06
2019-01-10T05:56:00.858Z,1016.03
2019-01-10T05:57:00.903Z,1016.00
2019-01-10T05:58:00.837Z,1016.02
2019-01-10T05:59:00.843Z,1016.08
2019-01-10T06:00:00.819Z,1016.01
2019-01-10T06:01:00.803Z,1016.05
2019-01-10T06:02:00.797Z,1016.05
2019-01-10T06:03:00.785Z,1016.04
2019-01-10T06:04:00.784Z,1016.08
2019-01-10T06:05:00.771Z,1016.16
2019-01-10T06:06:00.752Z,1016.14
2019-01-10T06:07:00.741Z,1016.16
2019-01-10T06:08:00.732Z,1016.15
2019-01-10T06:09:00.760Z,1016.18
2019-01-10T06:10:00.713Z,1016.21
2019-01-10T06:11:00.699Z,1016.22
2019-01-10T06:12:00.686Z,1016.18
2019-01-10T06:13:00.679Z,1016.16
2019-01-10T06:14:00.667Z,1016.24
2019-01-10T06:15:00.672Z,1016.24
2019-01-10T06:16:00.645Z,1016.33
2019-01-10T06:17:00.635Z,1016.24
2019-01-10T06:18:00.624Z,1016.37
2019-01-10T06:19:00.616Z,1016.29
2019-01-10T06:20:00.611Z,1016.37
2019-01-10T06:21:00.593Z,1016.39
2019-01-10T06:22:00.603Z,1016.39
2019-01-10T06:23:00.569Z,1016.44
2019-01-10T06:24:00.559Z,1016.40
2019-01-10T06:25:00.564Z,1016.44
2019-01-10T06:26:00.541Z,1016.45
2019-01-10T06:27:00.531Z,1016.47
2019-01-10T06:28:00.516Z,1016.47
2019-01-10T06:29:00.509Z,1016.48
2019-01-10T06:30:00.509Z,1016.44
2019-01-10T06:31:00.484Z,1016.50
2019-01-10T06:32:00.474Z,1016.57
2019-01-10T06:33:00.465Z,1016.48
2019-01-10T06:34:00.456Z,1016.56
2019-01-10T06:35:00.462Z,1016.53
2019-01-10T06:36:00.438Z,1016.54
2019-01-10T06:37:00.419Z,1016.51
2019-01-10T06:38:00.423Z,1016.59
2019-01-10T06:39:00.404Z,1016.53
2019-01-10T06:40:00.406Z,1016.56
2019-01-10T06:41:00.378Z,1016.52
2019-01-10T06:42:00.366Z,1016.59
2019-01-10T06:43:00.357Z,1016.62
2019-01-10T06:44:00.348Z,1016.65
2019-01-10T06:45:00.370Z,1016.53
2019-01-10T06:46:00.324Z,1016.63
2019-01-10T06:47:00.314Z,1016.66
2019-01-10T06:48:00.304Z,1016.68
2019-01-10T06:49:00.293Z,1016.71
2019-01-10T06:50:00.292Z,1016.68
2019-01-10T06:51:00.295Z,1016.73
2019-01-10T06:52:00.264Z,1016.76
2019-01-10T06:53:00.258Z,1016.79
2019-01-10T06:54:00.245Z,1016.74
2019-01-10T06:55:00.243Z,1016.75
2019-01-10T06:56:00.218Z,1016.70
2019-01-10T06:57:00.213Z,1016.76
2019-01-10T06:58:00.199Z,1016.72
2019-01-10T06:59:00.186Z,1016.70
2019-01-10T07:00:00.304Z,1016.76
2019-01-10T07:01:00.167Z,1016.69
2019-01-10T07:02:00.157Z,1016.74
2019-01-10T07:03:00.146Z,1016.77
2019-01-10T07:04:00.138Z,1016.83
2019-01-10T07:05:00.289Z,1016.83
2019-01-10T07:06:00.122Z,1016.80
2019-01-10T07:07:00.184Z,1016.81
2019-01-10T07:08:00.099Z,1016.79
2019-01-10T07:09:00.092Z,1016.77
2019-01-10T07:10:00.282Z,1016.84
2019-01-10T07:11:00.064Z,1016.81
2019-01-10T07:12:00.059Z,1016.90
2019-01-10T07:13:00.049Z,1016.88
2019-01-10T07:14:00.028Z,1016.89
2019-01-10T07:15:00.032Z,1016.88
2019-01-10T07:16:00.024Z,1016.94
2019-01-10T07:16:59.998Z,1016.87
2019-01-10T07:17:59.987Z,1016.91
2019-01-10T07:18:59.980Z,1016.91
2019-01-10T07:19:59.968Z,1016.92
2019-01-10T07:20:59.973Z,1016.93
2019-01-10T07:21:59.990Z,1016.95
2019-01-10T07:22:59.985Z,1016.97
2019-01-10T07:23:59.938Z,1016.94
2019-01-10T07:24:59.920Z,1016.97
2019-01-10T07:25:59.941Z,1017.00
2019-01-10T07:26:59.916Z,1016.99
2019-01-10T07:27:59.887Z,1016.99
2019-01-10T07:28:59.880Z,1017.00
2019-01-10T07:29:59.910Z,1016.98
2019-01-10T07:30:59.870Z,1017.09
2019-01-10T07:31:59.847Z,1017.08
2019-01-10T07:32:59.833Z,1017.07
2019-01-10T07:33:59.835Z,1017.06
2019-01-10T07:34:59.821Z,1017.00
2019-01-10T07:35:59.836Z,1017.06
2019-01-10T07:36:59.830Z,1017.10
2019-01-10T07:37:59.788Z,1017.12
2019-01-10T07:38:59.806Z,1017.11
2019-01-10T07:39:59.762Z,1017.11
2019-01-10T07:40:59.801Z,1017.14
2019-01-10T07:41:59.742Z,1017.18
2019-01-10T07:42:59.760Z,1017.23
2019-01-10T07:43:59.726Z,1017.23
2019-01-10T07:45:02.849Z,1017.32
2019-01-10T07:45:59.718Z,1017.31
2019-01-10T07:46:59.687Z,1017.29
2019-01-10T07:47:59.680Z,1017.31
2019-01-10T07:48:59.676Z,1017.37
2019-01-10T07:49:59.664Z,1017.30
2019-01-10T07:50:59.709Z,1017.35
2019-01-10T07:51:59.639Z,1017.37
2019-01-10T07:52:59.635Z,1017.32
2019-01-10T07:53:59.660Z,1017.32
2019-01-10T07:54:59.630Z,1017.34
2019-01-10T07:55:59.705Z,1017.34
2019-01-10T07:56:59.580Z,1017.38
2019-01-10T07:57:59.654Z,1017.38
2019-01-10T07:58:59.588Z,1017.43
2019-01-10T07:59:59.547Z,1017.34
2019-01-10T08:00:59.560Z,1017.37
2019-01-10T08:01:59.541Z,1017.49
2019-01-10T08:02:59.520Z,1017.42
2019-01-10T08:03:59.607Z,1017.47
2019-01-10T08:04:59.531Z,1017.44
2019-01-10T08:05:59.526Z,1017.53
2019-01-10T08:06:59.473Z,1017.49
2019-01-10T08:07:59.544Z,1017.55
2019-01-10T08:08:59.705Z,1017.58
2019-01-10T08:09:59.453Z,1017.61
2019-01-10T08:10:59.524Z,1017.57
2019-01-10T08:12:00.666Z,1017.58
2019-01-10T08:12:59.414Z,1017.57
2019-01-10T08:13:59.427Z,1017.62
2019-01-10T08:14:59.393Z,1017.63
2019-01-10T08:15:59.392Z,1017.60
2019-01-10T08:16:59.396Z,1017.74
2019-01-10T08:17:59.367Z,1017.71
2019-01-10T08:18:59.366Z,1017.69
2019-01-10T08:19:59.373Z,1017.67
2019-01-10T08:20:59.333Z,1017.72
2019-01-10T08:21:59.364Z,1017.75
2019-01-10T08:22:59.306Z,1017.84
2019-01-10T08:23:59.293Z,1017.85
2019-01-10T08:24:59.309Z,1017.81
2019-01-10T08:25:59.326Z,1017.80
2019-01-10T08:26:59.283Z,1017.81
2019-01-10T08:27:59.256Z,1017.86
2019-01-10T08:28:59.283Z,1017.92
2019-01-10T08:29:59.233Z,1017.86
2019-01-10T08:30:59.235Z,1017.97
2019-01-10T08:31:59.227Z,1017.91
2019-01-10T08:32:59.213Z,1017.93
2019-01-10T08:33:59.186Z,1017.88
2019-01-10T08:34:59.172Z,1017.96
2019-01-10T08:35:59.166Z,1017.99
2019-01-10T08:36:59.184Z,1018.01
2019-01-10T08:37:59.141Z,1017.99
2019-01-10T08:38:59.145Z,1018.00
2019-01-10T08:39:59.120Z,1017.98
2019-01-10T08:40:59.106Z,1017.97
2019-01-10T08:41:59.111Z,1017.97
2019-01-10T08:42:59.090Z,1018.03
2019-01-10T08:43:59.087Z,1018.05
2019-01-10T08:44:59.105Z,1018.02
2019-01-10T08:45:59.056Z,1018.07
2019-01-10T08:46:59.051Z,1017.99
2019-01-10T08:47:59.050Z,1017.99
2019-01-10T08:48:59.028Z,1018.02
2019-01-10T08:49:59.011Z,1018.05
2019-01-10T08:50:59.001Z,1018.04
2019-01-10T08:51:59.007Z,1018.08
2019-01-10T08:52:58.992Z,1018.02
2019-01-10T08:53:58.969Z,1018.08
2019-01-10T08:54:58.956Z,1018.11
2019-01-10T08:55:58.956Z,1018.13
2019-01-10T08:56:58.982Z,1018.21
2019-01-10T08:57:58.927Z,1018.13
2019-01-10T08:58:58.916Z,1018.16
2019-01-10T08:59:58.945Z,1018.17
2019-01-10T09:00:58.895Z,1018.15
2019-01-10T09:01:58.895Z,1018.13
2019-01-10T09:02:58.873Z,1018.12
2019-01-10T09:03:58.870Z,1018.13
2019-01-10T09:04:58.848Z,1018.14
2019-01-10T09:06:07.876Z,1018.15
2019-01-10T09:06:59.833Z,1018.19
2019-01-10T09:07:58.814Z,1018.18
2019-01-10T09:09:01.043Z,1018.20
2019-01-10T09:09:58.791Z,1018.17
2019-01-10T09:10:58.783Z,1018.19
2019-01-10T09:11:58.790Z,1018.24
2019-01-10T09:12:58.763Z,1018.29
2019-01-10T09:13:58.752Z,1018.33
2019-01-10T09:14:58.741Z,1018.21
2019-01-10T09:15:58.728Z,1018.19
2019-01-10T09:16:58.732Z,1018.21
2019-01-10T09:17:58.713Z,1018.26
2019-01-10T09:18:58.704Z,1018.26
2019-01-10T09:19:58.686Z,1018.31
2019-01-10T09:21:04.245Z,1018.35
2019-01-10T09:21:59.674Z,1018.24
2019-01-10T09:22:58.658Z,1018.30
2019-01-10T09:23:58.649Z,1018.33
2019-01-10T09:24:58.644Z,1018.28
2019-01-10T09:25:58.624Z,1018.28
2019-01-10T09:26:58.671Z,1018.34
2019-01-10T09:27:58.602Z,1018.34
2019-01-10T09:28:58.592Z,1018.34
2019-01-10T09:29:58.582Z,1018.37
2019-01-10T09:30:58.576Z,1018.43
2019-01-10T09:31:58.563Z,1018.42
2019-01-10T09:32:58.562Z,1018.39
2019-01-10T09:33:58.538Z,1018.40
2019-01-10T09:34:58.527Z,1018.37
2019-01-10T09:35:58.517Z,1018.36
2019-01-10T09:36:58.511Z,1018.48
2019-01-10T09:37:58.568Z,1018.48
2019-01-10T09:38:58.575Z,1018.49
2019-01-10T09:39:58.513Z,1018.45
2019-01-10T09:40:58.472Z,1018.46
2019-01-10T09:41:58.494Z,1018.52
2019-01-10T09:42:58.460Z,1018.51
2019-01-10T09:43:58.485Z,1018.54
2019-01-10T09:44:58.472Z,1018.56
2019-01-10T09:45:58.417Z,1018.54
2019-01-10T09:46:58.418Z,1018.51
2019-01-10T09:47:58.461Z,1018.50
2019-01-10T09:48:58.441Z,1018.60
2019-01-10T09:49:58.414Z,1018.54
2019-01-10T09:50:58.378Z,1018.62
2019-01-10T09:51:58.410Z,1018.58
2019-01-10T09:52:58.368Z,1018.60
2019-01-10T09:53:58.377Z,1018.67
2019-01-10T09:55:07.756Z,1018.58
2019-01-10T09:55:58.299Z,1018.60
2019-01-10T09:56:58.291Z,1018.60
2019-01-10T09:57:58.290Z,1018.61
2019-01-10T09:58:58.271Z,1018.67
2019-01-10T09:59:58.260Z,1018.64
2019-01-10T10:00:58.270Z,1018.68
2019-01-10T10:01:58.397Z,1018.68
2019-01-10T10:02:58.236Z,1018.70
2019-01-10T10:03:58.214Z,1018.71
2019-01-10T10:04:58.216Z,1018.67
2019-01-10T10:06:07.352Z,1018.73
2019-01-10T10:06:59.186Z,1018.77
2019-01-10T10:07:58.191Z,1018.68
2019-01-10T10:08:58.251Z,1018.73
2019-01-10T10:09:58.151Z,1018.73
2019-01-10T10:10:58.140Z,1018.71
2019-01-10T10:11:58.132Z,1018.71
2019-01-10T10:12:58.132Z,1018.68
2019-01-10T10:13:58.108Z,1018.72
2019-01-10T10:14:58.098Z,1018.74
2019-01-10T10:15:58.093Z,1018.70
2019-01-10T10:16:58.078Z,1018.71
2019-01-10T10:17:58.079Z,1018.73
2019-01-10T10:18:58.055Z,1018.70
2019-01-10T10:19:58.044Z,1018.71
2019-01-10T10:20:58.045Z,1018.73
2019-01-10T10:21:58.026Z,1018.76
2019-01-10T10:22:58.025Z,1018.71
2019-01-10T10:23:58.001Z,1018.78
2019-01-10T10:24:57.990Z,1018.79
2019-01-10T10:25:57.980Z,1018.82
2019-01-10T10:26:57.970Z,1018.79
2019-01-10T10:27:57.970Z,1018.79
2019-01-10T10:28:57.948Z,1018.79
2019-01-10T10:29:57.945Z,1018.85
2019-01-10T10:30:57.925Z,1018.72
2019-01-10T10:31:57.914Z,1018.70
2019-01-10T10:32:57.921Z,1018.69
2019-01-10T10:33:57.898Z,1018.69
2019-01-10T10:34:57.883Z,1018.70
2019-01-10T10:35:57.877Z,1018.65
2019-01-10T10:36:57.863Z,1018.64
2019-01-10T10:37:57.866Z,1018.67
2019-01-10T10:38:57.843Z,1018.61
2019-01-10T10:39:57.834Z,1018.62
2019-01-10T10:40:57.823Z,1018.60
2019-01-10T10:41:57.823Z,1018.62
2019-01-10T10:42:57.810Z,1018.61
2019-01-10T10:43:57.789Z,1018.63
2019-01-10T10:44:57.778Z,1018.62
2019-01-10T10:46:01.720Z,1018.62
2019-01-10T10:46:57.759Z,1018.56
2019-01-10T10:47:57.784Z,1018.62
2019-01-10T10:48:57.736Z,1018.60
2019-01-10T10:49:57.727Z,1018.59
2019-01-10T10:50:57.712Z,1018.59
2019-01-10T10:51:57.710Z,1018.64
2019-01-10T10:52:57.697Z,1018.65
2019-01-10T10:53:57.694Z,1018.67
2019-01-10T10:54:57.671Z,1018.58
2019-01-10T10:55:57.661Z,1018.55
2019-01-10T10:56:57.670Z,1018.59
2019-01-10T10:57:57.645Z,1018.61
2019-01-10T10:58:57.645Z,1018.61
2019-01-10T10:59:57.617Z,1018.61
2019-01-10T11:00:57.606Z,1018.60
2019-01-10T11:01:57.599Z,1018.56
2019-01-10T11:02:57.585Z,1018.53
2019-01-10T11:03:57.585Z,1018.53
2019-01-10T11:04:57.565Z,1018.56
2019-01-10T11:05:57.556Z,1018.56
2019-01-10T11:06:57.544Z,1018.59
2019-01-10T11:07:57.533Z,1018.58
2019-01-10T11:08:57.536Z,1018.57
2019-01-10T11:09:57.511Z,1018.60
2019-01-10T11:10:57.502Z,1018.60
2019-01-10T11:11:57.491Z,1018.57
2019-01-10T11:12:57.480Z,1018.55
2019-01-10T11:13:57.482Z,1018.57
2019-01-10T11:14:57.458Z,1018.60
2019-01-10T11:15:57.449Z,1018.57
2019-01-10T11:16:57.437Z,1018.56
2019-01-10T11:17:57.427Z,1018.70
2019-01-10T11:18:57.427Z,1018.59
2019-01-10T11:19:57.406Z,1018.54
2019-01-10T11:20:57.394Z,1018.56
2019-01-10T11:21:57.381Z,1018.60
2019-01-10T11:22:57.374Z,1018.58
2019-01-10T11:23:57.372Z,1018.49
2019-01-10T11:24:57.349Z,1018.54
2019-01-10T11:25:57.343Z,1018.58
2019-01-10T11:26:57.333Z,1018.56
2019-01-10T11:27:57.320Z,1018.50
2019-01-10T11:28:57.319Z,1018.53
2019-01-10T11:29:57.296Z,1018.51
2019-01-10T11:30:57.295Z,1018.54
2019-01-10T11:31:57.276Z,1018.53
2019-01-10T11:32:57.272Z,1018.55
2019-01-10T11:33:57.265Z,1018.46
2019-01-10T11:34:57.245Z,1018.50
2019-01-10T11:35:57.229Z,1018.45
2019-01-10T11:36:57.221Z,1018.51
2019-01-10T11:37:57.211Z,1018.46
2019-01-10T11:38:57.213Z,1018.51
2019-01-10T11:39:57.188Z,1018.53
2019-01-10T11:40:57.198Z,1018.43
2019-01-10T11:41:57.170Z,1018.50
2019-01-10T11:42:57.158Z,1018.46
2019-01-10T11:43:57.156Z,1018.50
2019-01-10T11:44:57.134Z,1018.42
2019-01-10T11:45:57.129Z,1018.48
2019-01-10T11:46:57.112Z,1018.49
2019-01-10T11:47:57.101Z,1018.47
2019-01-10T11:48:57.099Z,1018.45
2019-01-10T11:49:57.081Z,1018.43
2019-01-10T11:50:57.080Z,1018.42
2019-01-10T11:51:57.060Z,1018.44
2019-01-10T11:52:57.051Z,1018.40
2019-01-10T11:53:57.050Z,1018.41
2019-01-10T11:54:57.032Z,1018.42
2019-01-10T11:55:57.015Z,1018.30
2019-01-10T11:56:57.006Z,1018.38
2019-01-10T11:57:56.994Z,1018.27
2019-01-10T11:58:57.003Z,1018.34
2019-01-10T11:59:56.975Z,1018.26
2019-01-10T12:00:56.969Z,1018.28
2019-01-10T12:01:56.953Z,1018.36
2019-01-10T12:02:56.943Z,1018.34
2019-01-10T12:03:56.979Z,1018.44
2019-01-10T12:04:56.920Z,1018.35
2019-01-10T12:05:56.912Z,1018.26
2019-01-10T12:06:56.901Z,1018.34
2019-01-10T12:07:56.889Z,1018.32
2019-01-10T12:08:56.879Z,1018.38
2019-01-10T12:09:56.880Z,1018.34